createdAt,value
2018-06-11T00:00:57.854Z,95.90
2018-06-11T00:03:26.075Z,96.00
2018-06-11T00:05:54.280Z,96.10
2018-06-11T00:08:22.503Z,96.20
2018-06-11T00:10:50.712Z,96.20
2018-06-11T00:13:18.966Z,96.30
2018-06-11T00:15:47.187Z,96.30
2018-06-11T00:18:15.399Z,96.30
2018-06-11T00:20:43.624Z,96.40
2018-06-11T00:23:11.861Z,96.50
2018-06-11T00:25:40.066Z,96.60
2018-06-11T00:28:08.296Z,97.00
2018-06-11T00:30:36.552Z,96.80
2018-06-11T00:33:04.848Z,96.90
2018-06-11T00:35:33.075Z,96.90
2018-06-11T00:38:01.285Z,97.00
2018-06-11T00:40:29.517Z,97.00
2018-06-11T00:42:57.732Z,97.00
2018-06-11T00:45:25.963Z,97.10
2018-06-11T00:47:54.188Z,97.10
2018-06-11T00:50:22.389Z,97.20
2018-06-11T00:52:51.577Z,97.30
2018-06-11T00:55:19.785Z,97.40
2018-06-11T00:57:47.988Z,97.40
2018-06-11T01:00:16.179Z,97.50
2018-06-11T01:02:44.395Z,97.40
2018-06-11T01:05:12.618Z,97.50
2018-06-11T01:07:40.808Z,97.50
2018-06-11T01:10:09.020Z,97.50
2018-06-11T01:12:37.248Z,97.50
2018-06-11T01:15:05.500Z,97.50
2018-06-11T01:17:33.699Z,97.50
2018-06-11T01:20:01.946Z,97.50
2018-06-11T01:22:30.148Z,97.50
2018-06-11T01:24:58.348Z,97.60
2018-06-11T01:27:26.602Z,97.50
2018-06-11T01:32:31.956Z,97.50
2018-06-11T01:35:00.144Z,97.50
2018-06-11T01:37:28.372Z,97.50
2018-06-11T01:39:56.589Z,97.50
2018-06-11T01:42:24.825Z,97.50
2018-06-11T01:44:53.028Z,97.50
2018-06-11T01:47:21.253Z,97.50
2018-06-11T01:49:49.461Z,97.50
2018-06-11T01:52:17.716Z,97.90
2018-06-11T01:54:45.928Z,97.60
2018-06-11T01:57:14.140Z,97.60
2018-06-11T01:59:42.377Z,97.70
2018-06-11T02:02:10.587Z,97.70
2018-06-11T02:04:38.783Z,97.80
2018-06-11T02:07:07.004Z,97.80
2018-06-11T02:09:35.197Z,97.80
2018-06-11T02:12:03.439Z,97.80
2018-06-11T02:16:59.655Z,97.90
2018-06-11T02:19:28.036Z,97.90
2018-06-11T02:21:56.240Z,97.90
2018-06-11T02:24:24.451Z,98.00
2018-06-11T02:26:52.676Z,98.00
2018-06-11T02:29:20.866Z,98.00
2018-06-11T02:31:49.085Z,98.00
2018-06-11T02:34:17.281Z,98.00
2018-06-11T02:36:45.525Z,98.00
2018-06-11T02:39:13.744Z,98.10
2018-06-11T02:41:41.956Z,98.10
2018-06-11T02:44:10.179Z,98.10
2018-06-11T02:46:38.369Z,98.20
2018-06-11T02:49:06.578Z,98.30
2018-06-11T02:51:34.789Z,98.40
2018-06-11T02:54:03.047Z,98.40
2018-06-11T02:56:31.325Z,98.80
2018-06-11T02:58:59.508Z,98.40
2018-06-11T03:01:27.727Z,98.50
2018-06-11T03:03:55.988Z,98.50
2018-06-11T03:06:24.181Z,98.50
2018-06-11T03:08:52.414Z,98.60
2018-06-11T03:11:20.644Z,98.70
2018-06-11T03:13:48.869Z,98.80
2018-06-11T03:16:17.084Z,98.80
2018-06-11T03:18:45.320Z,98.80
2018-06-11T03:21:13.548Z,98.80
2018-06-11T03:23:41.848Z,98.80
2018-06-11T03:26:10.021Z,98.80
2018-06-11T03:28:38.268Z,98.90
2018-06-11T03:31:06.561Z,98.90
2018-06-11T03:33:34.882Z,99.00
2018-06-11T03:36:03.089Z,99.00
2018-06-11T03:38:31.296Z,99.00
2018-06-11T03:40:59.520Z,99.00
2018-06-11T03:43:27.737Z,98.90
2018-06-11T03:45:55.974Z,98.90
2018-06-11T03:48:24.180Z,98.90
2018-06-11T03:50:52.390Z,98.80
2018-06-11T03:53:20.597Z,98.80
2018-06-11T03:55:48.796Z,98.90
2018-06-11T03:58:17.004Z,98.90
2018-06-11T04:00:45.221Z,98.80
2018-06-11T04:03:13.448Z,98.80
2018-06-11T04:05:41.669Z,98.70
2018-06-11T04:08:09.957Z,98.60
2018-06-11T04:10:38.199Z,98.60
2018-06-11T04:13:06.455Z,98.60
2018-06-11T04:15:34.660Z,98.60
2018-06-11T04:18:02.875Z,98.60
2018-06-11T04:20:31.075Z,98.50
2018-06-11T04:22:59.313Z,98.90
2018-06-11T04:25:27.517Z,98.40
2018-06-11T04:27:55.763Z,98.30
2018-06-11T04:30:24.049Z,98.20
2018-06-11T04:32:52.260Z,98.50
2018-06-11T04:35:20.481Z,98.10
2018-06-11T04:37:48.701Z,98.00
2018-06-11T04:40:16.892Z,97.90
2018-06-11T04:42:45.132Z,97.80
2018-06-11T04:45:13.382Z,97.80
2018-06-11T04:47:41.641Z,97.80
2018-06-11T04:50:09.849Z,97.80
2018-06-11T04:52:38.077Z,97.70
2018-06-11T04:55:06.342Z,97.60
2018-06-11T04:57:34.540Z,97.50
2018-06-11T05:00:02.761Z,97.40
2018-06-11T05:02:30.993Z,97.30
2018-06-11T05:04:59.220Z,97.30
2018-06-11T05:07:27.432Z,97.30
2018-06-11T05:09:55.640Z,97.30
2018-06-11T05:12:23.841Z,97.30
2018-06-11T05:14:52.061Z,97.30
2018-06-11T05:17:20.473Z,97.30
2018-06-11T05:19:48.676Z,97.30
2018-06-11T05:22:16.917Z,97.30
2018-06-11T05:24:45.168Z,97.20
2018-06-11T05:27:13.408Z,97.10
2018-06-11T05:29:41.612Z,97.10
2018-06-11T05:32:09.826Z,97.10
2018-06-11T05:34:38.414Z,97.00
2018-06-11T05:37:06.608Z,97.00
2018-06-11T05:39:35.137Z,96.90
2018-06-11T05:42:03.341Z,96.80
2018-06-11T05:44:31.681Z,96.70
2018-06-11T05:46:59.868Z,96.60
2018-06-11T05:49:28.111Z,96.50
2018-06-11T05:51:56.320Z,96.30
2018-06-11T05:54:24.520Z,96.20
2018-06-11T05:56:52.726Z,96.10
2018-06-11T05:59:20.944Z,96.00
2018-06-11T06:01:49.163Z,95.90
2018-06-11T06:04:17.424Z,95.70
2018-06-11T06:06:45.640Z,95.60
2018-06-11T06:11:41.812Z,95.30
2018-06-11T06:14:10.062Z,95.00
2018-06-11T06:16:38.308Z,94.70
2018-06-11T06:19:06.517Z,94.40
2018-06-11T06:21:34.778Z,94.10
2018-06-11T06:24:02.997Z,93.90
2018-06-11T06:26:31.226Z,93.60
2018-06-11T06:28:59.438Z,93.10
2018-06-11T06:31:27.690Z,92.80
2018-06-11T06:33:55.900Z,92.20
2018-06-11T06:36:24.097Z,92.00
2018-06-11T06:38:52.309Z,91.80
2018-06-11T06:41:20.534Z,91.60
2018-06-11T06:43:48.728Z,91.30
2018-06-11T06:46:16.977Z,91.40
2018-06-11T06:48:45.179Z,90.50
2018-06-11T06:51:13.423Z,90.40
2018-06-11T06:53:41.706Z,90.00
2018-06-11T06:56:09.874Z,89.50
2018-06-11T06:58:38.116Z,88.70
2018-06-11T07:01:06.311Z,88.30
2018-06-11T07:03:34.516Z,88.50
2018-06-11T07:06:02.716Z,87.10
2018-06-11T07:08:31.445Z,86.50
2018-06-11T07:10:59.663Z,86.30
2018-06-11T07:13:27.860Z,85.80
2018-06-11T07:15:56.080Z,85.20
2018-06-11T07:18:24.293Z,84.50
2018-06-11T07:20:52.503Z,84.00
2018-06-11T07:23:20.704Z,83.10
2018-06-11T07:25:48.944Z,82.40
2018-06-11T07:28:17.151Z,82.00
2018-06-11T07:30:45.390Z,81.40
2018-06-11T07:33:13.633Z,80.60
2018-06-11T07:35:41.852Z,80.20
2018-06-11T07:38:10.053Z,80.10
2018-06-11T07:40:38.256Z,80.00
2018-06-11T07:43:06.570Z,79.40
2018-06-11T07:45:34.757Z,78.60
2018-06-11T07:48:03.002Z,78.50
2018-06-11T07:50:31.222Z,77.90
2018-06-11T07:52:59.400Z,77.50
2018-06-11T07:55:27.609Z,77.00
2018-06-11T07:57:55.810Z,75.90
2018-06-11T08:00:24.006Z,74.90
2018-06-11T08:02:52.216Z,74.60
2018-06-11T08:05:20.420Z,74.80
2018-06-11T08:07:48.641Z,75.20
2018-06-11T08:10:16.824Z,75.30
2018-06-11T08:12:45.029Z,75.30
2018-06-11T08:15:13.237Z,75.40
2018-06-11T08:17:41.459Z,74.70
2018-06-11T08:22:37.612Z,75.10
2018-06-11T08:25:05.833Z,73.70
2018-06-11T08:27:34.025Z,72.80
2018-06-11T08:30:02.237Z,72.70
2018-06-11T08:32:30.451Z,72.10
2018-06-11T08:34:58.663Z,71.70
2018-06-11T08:37:26.872Z,71.30
2018-06-11T08:39:55.260Z,70.60
2018-06-11T08:42:23.455Z,69.40
2018-06-11T08:44:51.684Z,68.40
2018-06-11T08:47:20.149Z,67.90
2018-06-11T08:49:48.354Z,67.70
2018-06-11T08:52:16.576Z,67.70
2018-06-11T08:57:12.827Z,68.80
2018-06-11T08:59:41.091Z,67.90
2018-06-11T09:02:09.292Z,67.80
2018-06-11T09:04:37.499Z,68.10
2018-06-11T09:07:06.161Z,68.40
2018-06-11T09:09:34.441Z,68.70
2018-06-11T09:12:02.676Z,68.80
2018-06-11T09:16:58.836Z,69.80
2018-06-11T09:19:27.043Z,69.30
2018-06-11T09:24:23.208Z,69.40
2018-06-11T09:26:51.520Z,68.80
2018-06-11T09:29:19.729Z,68.30
2018-06-11T09:31:47.957Z,67.60
2018-06-11T09:34:16.132Z,66.70
2018-06-11T09:36:44.343Z,66.40
2018-06-11T09:39:12.563Z,67.00
2018-06-11T09:41:40.769Z,68.00
2018-06-11T09:44:08.997Z,68.10
2018-06-11T09:46:37.208Z,67.50
2018-06-11T09:49:05.553Z,68.10
2018-06-11T09:51:33.741Z,67.80
2018-06-11T09:54:01.952Z,68.30
2018-06-11T09:56:30.161Z,69.10
2018-06-11T09:58:58.396Z,69.10
2018-06-11T10:01:26.628Z,69.20
2018-06-11T10:03:54.821Z,69.60
2018-06-11T10:06:23.060Z,69.50
2018-06-11T10:08:51.303Z,68.90
2018-06-11T10:11:19.509Z,69.10
2018-06-11T10:13:48.204Z,67.70
2018-06-11T10:16:16.410Z,66.50
2018-06-11T10:18:44.628Z,65.10
2018-06-11T10:21:12.820Z,63.90
2018-06-11T10:23:41.057Z,63.30
2018-06-11T10:26:09.240Z,62.10
2018-06-11T10:28:37.444Z,62.00
2018-06-11T10:31:05.680Z,62.10
2018-06-11T10:36:01.861Z,61.40
2018-06-11T10:38:30.068Z,61.20
2018-06-11T10:40:58.361Z,61.40
2018-06-11T10:43:26.579Z,60.90
2018-06-11T10:45:54.800Z,60.70
2018-06-11T10:48:23.040Z,60.10
2018-06-11T10:50:51.241Z,59.10
2018-06-11T10:53:19.435Z,58.50
2018-06-11T10:55:47.641Z,57.70
2018-06-11T10:58:15.848Z,57.90
2018-06-11T11:00:44.066Z,58.50
2018-06-11T11:03:12.280Z,59.20
2018-06-11T11:05:40.484Z,60.00
2018-06-11T11:08:08.720Z,59.60
2018-06-11T11:10:36.947Z,58.70
2018-06-11T11:13:05.208Z,57.60
2018-06-11T11:15:33.456Z,56.80
2018-06-11T11:18:01.669Z,55.90
2018-06-11T11:20:29.884Z,54.50
2018-06-11T11:22:58.099Z,54.40
2018-06-11T11:25:26.322Z,55.00
2018-06-11T11:27:54.540Z,54.80
2018-06-11T11:30:22.747Z,55.20
2018-06-11T11:32:50.948Z,54.70
2018-06-11T11:35:19.164Z,55.00
2018-06-11T11:37:47.393Z,55.70
2018-06-11T11:40:15.633Z,56.30
2018-06-11T11:42:43.836Z,56.90
2018-06-11T11:45:12.069Z,57.40
2018-06-11T11:47:40.280Z,56.50
2018-06-11T11:50:08.516Z,57.30
2018-06-11T11:52:37.256Z,56.60
2018-06-11T11:55:05.481Z,56.50
2018-06-11T11:57:33.677Z,56.40
2018-06-11T12:00:01.940Z,56.70
2018-06-11T12:02:30.144Z,57.30
2018-06-11T12:04:58.426Z,57.70
2018-06-11T12:07:26.632Z,58.40
2018-06-11T12:09:54.886Z,58.80
2018-06-11T12:12:23.074Z,59.50
2018-06-11T12:14:51.264Z,59.90
2018-06-11T12:17:19.460Z,59.80
2018-06-11T12:19:47.656Z,58.90
2018-06-11T12:22:15.874Z,57.90
2018-06-11T12:24:44.106Z,57.30
2018-06-11T12:27:12.284Z,57.10
2018-06-11T12:29:40.508Z,57.80
2018-06-11T12:32:08.770Z,58.40
2018-06-11T12:34:36.976Z,59.30
2018-06-11T12:37:05.173Z,59.50
2018-06-11T12:39:33.384Z,59.90
2018-06-11T12:42:01.592Z,59.60
2018-06-11T12:44:29.788Z,58.70
2018-06-11T12:46:57.996Z,57.30
2018-06-11T12:49:26.207Z,56.70
2018-06-11T12:51:54.424Z,56.50
2018-06-11T12:54:22.644Z,56.20
2018-06-11T12:56:50.861Z,56.10
2018-06-11T12:59:19.087Z,56.40
2018-06-11T13:01:47.296Z,55.50
2018-06-11T13:04:15.597Z,56.10
2018-06-11T13:06:43.824Z,56.80
2018-06-11T13:09:12.044Z,57.50
2018-06-11T13:11:40.294Z,58.00
2018-06-11T13:14:08.534Z,58.90
2018-06-11T13:16:36.744Z,59.10
2018-06-11T13:19:05.129Z,58.70
2018-06-11T13:21:34.399Z,57.50
2018-06-11T13:24:02.593Z,57.10
2018-06-11T13:26:30.796Z,56.90
2018-06-11T13:28:58.983Z,57.20
2018-06-11T13:31:27.200Z,55.40
2018-06-11T13:33:55.407Z,54.70
2018-06-11T13:36:23.660Z,54.30
2018-06-11T13:38:51.856Z,53.70
2018-06-11T13:41:20.072Z,53.30
2018-06-11T13:43:48.323Z,53.40
2018-06-11T13:46:16.510Z,53.60
2018-06-11T13:48:44.697Z,54.10
2018-06-11T13:51:12.914Z,54.80
2018-06-11T13:53:41.266Z,55.10
2018-06-11T13:56:09.459Z,55.40
2018-06-11T13:58:37.673Z,55.50
2018-06-11T14:01:05.905Z,56.00
2018-06-11T14:03:34.088Z,56.50
2018-06-11T14:06:02.313Z,57.00
2018-06-11T14:08:30.500Z,57.00
2018-06-11T14:10:58.736Z,56.90
2018-06-11T14:13:26.931Z,57.40
2018-06-11T14:15:55.116Z,58.50
2018-06-11T14:18:23.347Z,60.10
2018-06-11T14:20:51.605Z,62.30
2018-06-11T14:23:19.821Z,64.00
2018-06-11T14:25:48.062Z,65.30
2018-06-11T14:28:16.248Z,66.20
2018-06-11T14:30:44.465Z,67.20
2018-06-11T14:33:12.667Z,67.50
2018-06-11T14:35:40.872Z,67.80
2018-06-11T14:38:09.145Z,68.00
2018-06-11T14:40:37.339Z,68.50
2018-06-11T14:43:05.535Z,69.40
2018-06-11T14:45:33.741Z,70.00
2018-06-11T14:48:01.938Z,71.00
2018-06-11T14:50:31.001Z,71.80
2018-06-11T14:52:59.371Z,72.70
2018-06-11T14:55:27.559Z,73.30
2018-06-11T14:57:55.816Z,74.00
2018-06-11T15:00:24.044Z,74.50
2018-06-11T15:02:52.259Z,75.00
2018-06-11T15:05:20.472Z,75.40
2018-06-11T15:07:48.663Z,75.50
2018-06-11T15:10:16.895Z,75.30
2018-06-11T15:12:45.093Z,75.30
2018-06-11T15:15:13.303Z,75.40
2018-06-11T15:17:41.525Z,76.00
2018-06-11T15:20:09.756Z,76.80
2018-06-11T15:22:37.960Z,77.70
2018-06-11T15:25:06.272Z,78.50
2018-06-11T15:27:34.489Z,78.60
2018-06-11T15:30:02.701Z,78.80
2018-06-11T15:32:30.892Z,78.10
2018-06-11T15:34:59.180Z,77.00
2018-06-11T15:37:27.384Z,76.10
2018-06-11T15:39:55.604Z,75.50
2018-06-11T15:42:23.805Z,75.70
2018-06-11T15:47:19.992Z,76.60
2018-06-11T15:49:48.336Z,77.30
2018-06-11T15:52:16.541Z,78.00
2018-06-11T15:54:44.761Z,78.90
2018-06-11T15:57:13.180Z,79.50
2018-06-11T15:59:41.429Z,80.00
2018-06-11T16:02:09.616Z,80.50
2018-06-11T16:04:37.853Z,81.20
2018-06-11T16:07:06.071Z,83.20
2018-06-11T16:12:02.326Z,88.70
2018-06-11T16:16:49.674Z,90.30
2018-06-11T16:19:17.872Z,91.60
2018-06-11T16:21:46.086Z,92.30
2018-06-11T16:24:14.331Z,92.70
2018-06-11T16:26:42.555Z,92.90
2018-06-11T16:29:10.768Z,92.70
2018-06-11T16:31:38.986Z,92.70
2018-06-11T16:34:07.264Z,92.90
2018-06-11T16:36:35.476Z,92.90
2018-06-11T16:39:05.588Z,93.00
2018-06-11T16:41:34.845Z,93.20
2018-06-11T16:44:03.087Z,93.40
2018-06-11T16:46:31.421Z,93.60
2018-06-11T16:51:27.613Z,94.20
2018-06-11T16:53:55.800Z,94.40
2018-06-11T16:56:24.111Z,94.50
2018-06-11T16:58:52.364Z,94.40
2018-06-11T17:01:20.585Z,94.30
2018-06-11T17:03:48.805Z,94.30
2018-06-11T17:06:17.144Z,94.40
2018-06-11T17:08:45.744Z,94.50
2018-06-11T17:11:13.960Z,94.50
2018-06-11T17:13:42.216Z,94.60
2018-06-11T17:16:10.431Z,94.80
2018-06-11T17:18:38.696Z,94.90
2018-06-11T17:21:06.887Z,94.90
2018-06-11T17:23:35.172Z,94.90
2018-06-11T17:26:03.460Z,95.00
2018-06-11T17:28:31.652Z,95.20
2018-06-11T17:30:59.880Z,95.20
2018-06-11T17:33:28.079Z,95.30
2018-06-11T17:35:56.320Z,95.40
2018-06-11T17:38:24.564Z,95.50
2018-06-11T17:40:52.773Z,95.60
2018-06-11T17:43:20.992Z,95.70
2018-06-11T17:45:49.213Z,95.70
2018-06-11T17:48:17.533Z,95.70
2018-06-11T17:50:45.724Z,95.70
2018-06-11T17:53:14.065Z,95.70
2018-06-11T17:55:42.308Z,95.80
2018-06-11T17:58:10.688Z,95.90
2018-06-11T18:00:38.905Z,95.80
2018-06-11T18:03:07.145Z,95.90
2018-06-11T18:05:35.465Z,95.90
2018-06-11T18:08:03.639Z,96.00
2018-06-11T18:10:31.867Z,96.00
2018-06-11T18:13:00.097Z,95.90
2018-06-11T18:15:28.344Z,95.90
2018-06-11T18:17:56.607Z,95.90
2018-06-11T18:20:24.845Z,95.90
2018-06-11T18:22:53.468Z,95.80
2018-06-11T18:25:21.775Z,95.70
2018-06-11T18:27:50.006Z,95.70
2018-06-11T18:30:18.258Z,95.80
2018-06-11T18:32:46.596Z,95.80
2018-06-11T18:37:42.780Z,95.80
2018-06-11T18:40:11.026Z,95.70
2018-06-11T18:42:39.280Z,95.80
2018-06-11T18:45:07.513Z,95.90
2018-06-11T18:47:35.737Z,95.90
2018-06-11T18:50:04.117Z,95.90
2018-06-11T18:52:32.332Z,96.00
2018-06-11T18:55:00.572Z,95.90
2018-06-11T18:57:28.788Z,96.00
2018-06-11T18:59:57.064Z,95.70
2018-06-11T19:02:25.368Z,96.00
2018-06-11T19:04:53.623Z,96.10
2018-06-11T19:07:21.870Z,96.20
2018-06-11T19:09:50.541Z,96.30
2018-06-11T19:12:18.778Z,96.30
2018-06-11T19:14:47.119Z,96.30
2018-06-11T19:17:15.510Z,96.30
2018-06-11T19:19:43.935Z,96.20
2018-06-11T19:22:12.252Z,96.20
2018-06-11T19:24:40.548Z,96.30
2018-06-11T19:27:08.824Z,96.30
2018-06-11T19:29:37.061Z,96.30
2018-06-11T19:32:05.418Z,96.30
2018-06-11T19:34:33.686Z,96.40
2018-06-11T19:37:01.901Z,96.40
2018-06-11T19:39:30.148Z,96.40
2018-06-11T19:41:58.368Z,96.40
2018-06-11T19:44:26.598Z,96.40
2018-06-11T19:46:54.776Z,96.30
2018-06-11T19:49:22.972Z,96.30
2018-06-11T19:51:51.162Z,96.30
2018-06-11T19:54:19.544Z,96.30
2018-06-11T19:56:47.708Z,96.30
2018-06-11T19:59:15.926Z,96.30
2018-06-11T20:01:44.199Z,96.30
2018-06-11T20:04:12.398Z,96.30
2018-06-11T20:06:40.696Z,96.30
2018-06-11T20:09:08.964Z,96.30
2018-06-11T20:11:37.280Z,96.20
2018-06-11T20:14:05.487Z,96.20
2018-06-11T20:16:33.697Z,96.20
2018-06-11T20:19:01.904Z,96.20
2018-06-11T20:21:30.112Z,96.20
2018-06-11T20:23:58.404Z,96.20
2018-06-11T20:26:26.605Z,96.20
2018-06-11T20:28:54.795Z,96.30
2018-06-11T20:31:23.048Z,96.30
2018-06-11T20:33:51.245Z,96.30
2018-06-11T20:36:19.471Z,96.40
2018-06-11T20:38:47.664Z,96.40
2018-06-11T20:41:15.886Z,96.40
2018-06-11T20:43:44.076Z,96.40
2018-06-11T20:46:12.289Z,96.40
2018-06-11T20:48:40.508Z,96.40
2018-06-11T20:51:08.727Z,96.40
2018-06-11T20:53:36.930Z,96.40
2018-06-11T20:56:05.176Z,96.40
2018-06-11T20:58:33.376Z,96.40
2018-06-11T21:01:01.605Z,96.40
2018-06-11T21:03:29.827Z,96.40
2018-06-11T21:05:58.016Z,96.30
2018-06-11T21:08:26.268Z,96.30
2018-06-11T21:10:54.535Z,96.30
2018-06-11T21:13:22.760Z,96.30
2018-06-11T21:15:51.028Z,96.40
2018-06-11T21:18:19.206Z,96.40
2018-06-11T21:20:47.388Z,96.40
2018-06-11T21:23:15.720Z,96.40
2018-06-11T21:25:44.096Z,96.50
2018-06-11T21:28:12.297Z,96.50
2018-06-11T21:30:40.516Z,96.60
2018-06-11T21:33:08.709Z,96.70
2018-06-11T21:35:36.908Z,96.80
2018-06-11T21:38:05.696Z,97.00
2018-06-11T21:43:01.980Z,97.30
2018-06-11T21:45:30.191Z,97.40
2018-06-11T21:47:58.413Z,97.50
2018-06-11T21:50:26.623Z,97.60
2018-06-11T21:52:54.840Z,97.70
2018-06-11T21:55:23.060Z,97.90
2018-06-11T21:57:51.320Z,98.10
2018-06-11T22:00:19.600Z,98.20
2018-06-11T22:02:47.796Z,98.20
2018-06-11T22:05:16.493Z,98.20
2018-06-11T22:07:44.706Z,98.20
2018-06-11T22:10:12.908Z,98.10
2018-06-11T22:12:41.124Z,98.00
2018-06-11T22:15:09.340Z,97.90
2018-06-11T22:17:37.560Z,97.90
2018-06-11T22:20:05.766Z,98.00
2018-06-11T22:22:34.045Z,98.00
2018-06-11T22:25:02.257Z,98.00
2018-06-11T22:27:30.470Z,98.00
2018-06-11T22:29:58.664Z,98.00
2018-06-11T22:32:26.900Z,98.10
2018-06-11T22:34:55.112Z,98.10
2018-06-11T22:37:23.863Z,98.10
2018-06-11T22:39:52.120Z,98.20
2018-06-11T22:42:20.316Z,98.30
2018-06-11T22:44:48.515Z,98.40
2018-06-11T22:47:16.733Z,98.40
2018-06-11T22:49:44.918Z,98.50
2018-06-11T22:52:13.172Z,98.50
2018-06-11T22:54:41.379Z,98.60
2018-06-11T22:57:09.576Z,98.60
2018-06-11T22:59:37.831Z,98.60
2018-06-11T23:02:06.060Z,98.70
2018-06-11T23:04:34.303Z,99.20
2018-06-11T23:07:02.521Z,99.00
2018-06-11T23:09:30.728Z,99.10
2018-06-11T23:11:58.920Z,99.20
2018-06-11T23:16:55.082Z,99.20
2018-06-11T23:19:23.332Z,99.20
2018-06-11T23:21:51.559Z,99.20
2018-06-11T23:24:19.764Z,99.10
2018-06-11T23:26:47.972Z,99.20
2018-06-11T23:29:16.205Z,99.20
2018-06-11T23:31:44.429Z,99.30
2018-06-11T23:34:12.653Z,99.50
2018-06-11T23:36:40.855Z,99.60
2018-06-11T23:39:09.086Z,99.70
2018-06-11T23:41:54.180Z,99.70
2018-06-11T23:47:30.282Z,99.60
2018-06-11T23:50:04.644Z,99.60
2018-06-11T23:52:32.885Z,99.50
2018-06-11T23:55:01.101Z,99.40
2018-06-11T23:57:29.336Z,99.30
2018-06-11T23:59:57.545Z,99.30
